sensor_id;sensor_type;location;lat;lon;timestamp;temperature;humidity
20574;DHT22;10445;50.216;7.912;2023-02-13T00:01:17;5.40;99.90
20574;DHT22;10445;50.216;7.912;2023-02-13T00:04:06;5.30;99.90
20574;DHT22;10445;50.216;7.912;2023-02-13T00:06:54;5.30;99.90
20574;DHT22;10445;50.216;7.912;2023-02-13T00:09:44;5.30;99.90
20574;DHT22;10445;50.216;7.912;2023-02-13T00:12:33;5.30;99.90
20574;DHT22;10445;50.216;7.912;2023-02-13T00:15:22;5.40;99.90
20574;DHT22;10445;50.216;7.912;2023-02-13T00:18:10;5.40;99.90
20574;DHT22;10445;50.216;7.912;2023-02-13T00:21:01;5.30;99.90
20574;DHT22;10445;50.216;7.912;2023-02-13T00:23:50;5.30;99.90
20574;DHT22;10445;50.216;7.912;2023-02-13T00:26:40;5.30;99.90
20574;DHT22;10445;50.216;7.912;2023-02-13T00:29:28;5.30;99.90
20574;DHT22;10445;50.216;7.912;2023-02-13T00:32:17;5.30;99.90
20574;DHT22;10445;50.216;7.912;2023-02-13T00:35:06;5.30;99.90
20574;DHT22;10445;50.216;7.912;2023-02-13T00:37:54;5.30;99.90
20574;DHT22;10445;50.216;7.912;2023-02-13T00:40:43;5.30;99.90
20574;DHT22;10445;50.216;7.912;2023-02-13T00:43:33;5.20;99.90
20574;DHT22;10445;50.216;7.912;2023-02-13T00:46:22;5.20;99.90
20574;DHT22;10445;50.216;7.912;2023-02-13T00:49:10;5.20;99.90
20574;DHT22;10445;50.216;7.912;2023-02-13T00:51:59;5.10;99.90
20574;DHT22;10445;50.216;7.912;2023-02-13T00:54:48;5.20;99.90
20574;DHT22;10445;50.216;7.912;2023-02-13T00:57:36;5.20;99.90
20574;DHT22;10445;50.216;7.912;2023-02-13T01:00:26;5.10;99.90
20574;DHT22;10445;50.216;7.912;2023-02-13T01:03:15;5.10;99.90
20574;DHT22;10445;50.216;7.912;2023-02-13T01:06:05;5.10;99.90
20574;DHT22;10445;50.216;7.912;2023-02-13T01:08:54;5.00;99.90
20574;DHT22;10445;50.216;7.912;2023-02-13T01:11:42;5.00;99.90
20574;DHT22;10445;50.216;7.912;2023-02-13T01:14:31;5.00;99.90
20574;DHT22;10445;50.216;7.912;2023-02-13T01:17:21;4.90;99.90
20574;DHT22;10445;50.216;7.912;2023-02-13T01:20:11;4.90;99.90
20574;DHT22;10445;50.216;7.912;2023-02-13T01:23:00;4.90;99.90
20574;DHT22;10445;50.216;7.912;2023-02-13T01:25:48;4.90;99.90
20574;DHT22;10445;50.216;7.912;2023-02-13T01:28:37;4.90;99.90
20574;DHT22;10445;50.216;7.912;2023-02-13T01:31:26;4.90;99.90
20574;DHT22;10445;50.216;7.912;2023-02-13T01:34:16;4.80;99.90
20574;DHT22;10445;50.216;7.912;2023-02-13T01:37:05;4.80;99.90
20574;DHT22;10445;50.216;7.912;2023-02-13T01:39:53;4.70;99.90
20574;DHT22;10445;50.216;7.912;2023-02-13T01:42:43;4.60;99.90
20574;DHT22;10445;50.216;7.912;2023-02-13T01:45:31;4.50;99.90
20574;DHT22;10445;50.216;7.912;2023-02-13T01:48:22;4.40;99.90
20574;DHT22;10445;50.216;7.912;2023-02-13T01:51:15;4.40;99.90
20574;DHT22;10445;50.216;7.912;2023-02-13T01:54:07;4.30;99.90
20574;DHT22;10445;50.216;7.912;2023-02-13T01:56:58;4.20;99.90
20574;DHT22;10445;50.216;7.912;2023-02-13T01:59:50;4.10;99.90
20574;DHT22;10445;50.216;7.912;2023-02-13T02:02:44;3.90;99.90
20574;DHT22;10445;50.216;7.912;2023-02-13T02:05:35;3.80;99.90
20574;DHT22;10445;50.216;7.912;2023-02-13T02:08:26;3.70;99.90
20574;DHT22;10445;50.216;7.912;2023-02-13T02:11:19;3.70;99.90
20574;DHT22;10445;50.216;7.912;2023-02-13T02:14:10;3.60;99.90
20574;DHT22;10445;50.216;7.912;2023-02-13T02:16:58;3.60;99.90
20574;DHT22;10445;50.216;7.912;2023-02-13T02:19:52;3.50;99.90
20574;DHT22;10445;50.216;7.912;2023-02-13T02:33:19;3.30;99.90
20574;DHT22;10445;50.216;7.912;2023-02-13T02:36:26;3.40;99.90
20574;DHT22;10445;50.216;7.912;2023-02-13T02:39:26;3.40;99.90
20574;DHT22;10445;50.216;7.912;2023-02-13T02:42:29;3.20;99.90
20574;DHT22;10445;50.216;7.912;2023-02-13T02:45:24;3.20;99.90
20574;DHT22;10445;50.216;7.912;2023-02-13T02:48:21;3.00;99.90
20574;DHT22;10445;50.216;7.912;2023-02-13T02:51:38;3.10;99.90
20574;DHT22;10445;50.216;7.912;2023-02-13T02:54:33;3.10;99.90
20574;DHT22;10445;50.216;7.912;2023-02-13T02:57:45;3.20;99.90
20574;DHT22;10445;50.216;7.912;2023-02-13T03:00:54;3.20;99.90
20574;DHT22;10445;50.216;7.912;2023-02-13T03:04:04;3.20;99.90
20574;DHT22;10445;50.216;7.912;2023-02-13T03:07:14;3.20;99.90
20574;DHT22;10445;50.216;7.912;2023-02-13T03:10:05;3.20;99.90
20574;DHT22;10445;50.216;7.912;2023-02-13T03:13:12;3.10;99.90
20574;DHT22;10445;50.216;7.912;2023-02-13T03:16:13;3.00;99.90
20574;DHT22;10445;50.216;7.912;2023-02-13T03:19:27;2.90;99.90
20574;DHT22;10445;50.216;7.912;2023-02-13T03:22:43;2.80;99.90
20574;DHT22;10445;50.216;7.912;2023-02-13T03:25:37;2.70;99.90
20574;DHT22;10445;50.216;7.912;2023-02-13T03:28:37;2.60;99.90
20574;DHT22;10445;50.216;7.912;2023-02-13T03:31:49;2.50;99.90
20574;DHT22;10445;50.216;7.912;2023-02-13T03:34:56;2.50;99.90
20574;DHT22;10445;50.216;7.912;2023-02-13T03:38:10;2.40;99.90
20574;DHT22;10445;50.216;7.912;2023-02-13T03:41:04;2.40;99.90
20574;DHT22;10445;50.216;7.912;2023-02-13T03:44:12;2.30;99.90
20574;DHT22;10445;50.216;7.912;2023-02-13T03:47:06;2.40;99.90
20574;DHT22;10445;50.216;7.912;2023-02-13T03:49:57;2.40;99.90
20574;DHT22;10445;50.216;7.912;2023-02-13T03:52:56;2.30;99.90
20574;DHT22;10445;50.216;7.912;2023-02-13T03:55:47;2.30;99.90
20574;DHT22;10445;50.216;7.912;2023-02-13T03:58:55;2.30;99.90
20574;DHT22;10445;50.216;7.912;2023-02-13T04:02:10;2.30;99.90
20574;DHT22;10445;50.216;7.912;2023-02-13T04:05:07;2.30;99.90
20574;DHT22;10445;50.216;7.912;2023-02-13T04:07:56;2.40;99.90
20574;DHT22;10445;50.216;7.912;2023-02-13T04:10:49;2.30;99.90
20574;DHT22;10445;50.216;7.912;2023-02-13T04:13:44;2.30;99.90
20574;DHT22;10445;50.216;7.912;2023-02-13T04:16:37;2.20;99.90
20574;DHT22;10445;50.216;7.912;2023-02-13T04:19:27;2.20;99.90
20574;DHT22;10445;50.216;7.912;2023-02-13T04:22:17;2.10;99.90
20574;DHT22;10445;50.216;7.912;2023-02-13T04:25:06;2.00;99.90
20574;DHT22;10445;50.216;7.912;2023-02-13T04:27:55;2.10;99.90
20574;DHT22;10445;50.216;7.912;2023-02-13T04:30:43;2.10;99.90
20574;DHT22;10445;50.216;7.912;2023-02-13T04:33:32;2.10;99.90
20574;DHT22;10445;50.216;7.912;2023-02-13T04:36:21;2.00;99.90
20574;DHT22;10445;50.216;7.912;2023-02-13T04:39:11;2.10;99.90
20574;DHT22;10445;50.216;7.912;2023-02-13T04:42:00;2.00;99.90
20574;DHT22;10445;50.216;7.912;2023-02-13T04:44:49;2.00;99.90
20574;DHT22;10445;50.216;7.912;2023-02-13T04:47:37;1.90;99.90
20574;DHT22;10445;50.216;7.912;2023-02-13T04:50:26;1.90;99.90
20574;DHT22;10445;50.216;7.912;2023-02-13T04:53:14;1.80;99.90
20574;DHT22;10445;50.216;7.912;2023-02-13T04:56:04;1.70;99.90
20574;DHT22;10445;50.216;7.912;2023-02-13T04:58:54;1.70;99.90
20574;DHT22;10445;50.216;7.912;2023-02-13T05:01:43;1.60;99.90
20574;DHT22;10445;50.216;7.912;2023-02-13T05:04:32;1.60;99.90
20574;DHT22;10445;50.216;7.912;2023-02-13T05:07:20;1.60;99.90
20574;DHT22;10445;50.216;7.912;2023-02-13T05:10:10;1.60;99.90
20574;DHT22;10445;50.216;7.912;2023-02-13T05:13:00;1.50;99.90
20574;DHT22;10445;50.216;7.912;2023-02-13T05:15:49;1.50;99.90
20574;DHT22;10445;50.216;7.912;2023-02-13T05:18:38;1.60;99.90
20574;DHT22;10445;50.216;7.912;2023-02-13T05:21:27;1.60;99.90
20574;DHT22;10445;50.216;7.912;2023-02-13T05:24:33;1.50;99.90
20574;DHT22;10445;50.216;7.912;2023-02-13T05:27:21;1.50;99.90
20574;DHT22;10445;50.216;7.912;2023-02-13T05:30:13;1.50;99.90
20574;DHT22;10445;50.216;7.912;2023-02-13T05:33:01;1.50;99.90
20574;DHT22;10445;50.216;7.912;2023-02-13T05:35:50;1.50;99.90
20574;DHT22;10445;50.216;7.912;2023-02-13T05:38:39;1.50;99.90
20574;DHT22;10445;50.216;7.912;2023-02-13T05:41:28;1.50;99.90
20574;DHT22;10445;50.216;7.912;2023-02-13T05:44:17;1.60;99.90
20574;DHT22;10445;50.216;7.912;2023-02-13T05:47:06;1.50;99.90
20574;DHT22;10445;50.216;7.912;2023-02-13T05:49:55;1.50;99.90
20574;DHT22;10445;50.216;7.912;2023-02-13T05:52:44;1.40;99.90
20574;DHT22;10445;50.216;7.912;2023-02-13T05:55:32;1.30;99.90
20574;DHT22;10445;50.216;7.912;2023-02-13T05:58:21;1.30;99.90
20574;DHT22;10445;50.216;7.912;2023-02-13T06:01:10;1.30;99.90
20574;DHT22;10445;50.216;7.912;2023-02-13T06:04:00;1.30;99.90
20574;DHT22;10445;50.216;7.912;2023-02-13T06:06:50;1.30;99.90
20574;DHT22;10445;50.216;7.912;2023-02-13T06:09:39;1.30;99.90
20574;DHT22;10445;50.216;7.912;2023-02-13T06:12:28;1.30;99.90
20574;DHT22;10445;50.216;7.912;2023-02-13T06:15:16;1.30;99.90
20574;DHT22;10445;50.216;7.912;2023-02-13T06:18:05;1.30;99.90
20574;DHT22;10445;50.216;7.912;2023-02-13T06:20:55;1.20;99.90
20574;DHT22;10445;50.216;7.912;2023-02-13T06:23:45;1.20;99.90
20574;DHT22;10445;50.216;7.912;2023-02-13T06:26:34;1.20;99.90
20574;DHT22;10445;50.216;7.912;2023-02-13T06:29:23;1.20;99.90
20574;DHT22;10445;50.216;7.912;2023-02-13T06:32:11;1.30;99.90
20574;DHT22;10445;50.216;7.912;2023-02-13T06:35:00;1.30;99.90
20574;DHT22;10445;50.216;7.912;2023-02-13T06:37:53;1.30;99.90
20574;DHT22;10445;50.216;7.912;2023-02-13T06:40:41;1.30;99.90
20574;DHT22;10445;50.216;7.912;2023-02-13T06:43:30;1.20;99.90
20574;DHT22;10445;50.216;7.912;2023-02-13T06:46:18;1.10;99.90
20574;DHT22;10445;50.216;7.912;2023-02-13T06:49:08;1.10;99.90
20574;DHT22;10445;50.216;7.912;2023-02-13T06:51:57;1.20;99.90
20574;DHT22;10445;50.216;7.912;2023-02-13T06:54:46;1.20;99.90
20574;DHT22;10445;50.216;7.912;2023-02-13T06:57:35;1.20;99.90
20574;DHT22;10445;50.216;7.912;2023-02-13T07:00:24;1.20;99.90
20574;DHT22;10445;50.216;7.912;2023-02-13T07:03:13;1.30;99.90
20574;DHT22;10445;50.216;7.912;2023-02-13T07:06:02;1.30;99.90
20574;DHT22;10445;50.216;7.912;2023-02-13T07:08:50;1.30;99.90
20574;DHT22;10445;50.216;7.912;2023-02-13T07:11:43;1.40;99.90
20574;DHT22;10445;50.216;7.912;2023-02-13T07:14:32;1.90;99.90
20574;DHT22;10445;50.216;7.912;2023-02-13T07:17:20;2.60;99.90
20574;DHT22;10445;50.216;7.912;2023-02-13T07:20:09;3.10;99.90
20574;DHT22;10445;50.216;7.912;2023-02-13T07:22:58;3.50;99.90
20574;DHT22;10445;50.216;7.912;2023-02-13T07:25:47;3.70;99.90
20574;DHT22;10445;50.216;7.912;2023-02-13T07:28:37;3.80;99.90
20574;DHT22;10445;50.216;7.912;2023-02-13T07:31:26;3.70;99.90
20574;DHT22;10445;50.216;7.912;2023-02-13T07:34:15;3.40;99.90
20574;DHT22;10445;50.216;7.912;2023-02-13T07:37:03;3.40;99.90
20574;DHT22;10445;50.216;7.912;2023-02-13T07:39:52;3.30;99.90
20574;DHT22;10445;50.216;7.912;2023-02-13T07:42:40;3.30;99.90
20574;DHT22;10445;50.216;7.912;2023-02-13T07:45:30;3.40;99.90
20574;DHT22;10445;50.216;7.912;2023-02-13T07:48:21;3.40;99.90
20574;DHT22;10445;50.216;7.912;2023-02-13T07:51:13;3.40;99.90
20574;DHT22;10445;50.216;7.912;2023-02-13T07:54:02;3.50;99.90
20574;DHT22;10445;50.216;7.912;2023-02-13T07:56:51;3.60;99.90
20574;DHT22;10445;50.216;7.912;2023-02-13T07:59:39;3.70;99.90
20574;DHT22;10445;50.216;7.912;2023-02-13T08:02:30;3.90;99.90
20574;DHT22;10445;50.216;7.912;2023-02-13T08:05:19;4.10;99.90
20574;DHT22;10445;50.216;7.912;2023-02-13T08:08:07;4.60;99.90
20574;DHT22;10445;50.216;7.912;2023-02-13T08:10:56;5.40;99.90
20574;DHT22;10445;50.216;7.912;2023-02-13T08:14:02;6.30;99.90
20574;DHT22;10445;50.216;7.912;2023-02-13T08:16:52;7.30;99.90
20574;DHT22;10445;50.216;7.912;2023-02-13T08:19:42;8.30;85.90
20574;DHT22;10445;50.216;7.912;2023-02-13T08:22:30;9.30;72.50
20574;DHT22;10445;50.216;7.912;2023-02-13T08:25:19;10.00;59.20
20574;DHT22;10445;50.216;7.912;2023-02-13T08:28:08;10.60;54.50
20574;DHT22;10445;50.216;7.912;2023-02-13T08:30:57;10.50;49.60
20574;DHT22;10445;50.216;7.912;2023-02-13T08:33:46;10.10;55.40
20574;DHT22;10445;50.216;7.912;2023-02-13T08:36:36;9.50;46.50
20574;DHT22;10445;50.216;7.912;2023-02-13T08:39:24;9.10;53.50
20574;DHT22;10445;50.216;7.912;2023-02-13T08:42:13;9.00;49.90
20574;DHT22;10445;50.216;7.912;2023-02-13T08:45:02;8.60;40.10
20574;DHT22;10445;50.216;7.912;2023-02-13T08:47:55;8.40;45.00
20574;DHT22;10445;50.216;7.912;2023-02-13T08:50:44;8.60;44.90
20574;DHT22;10445;50.216;7.912;2023-02-13T08:53:35;8.60;34.80
20574;DHT22;10445;50.216;7.912;2023-02-13T08:56:23;8.40;41.00
20574;DHT22;10445;50.216;7.912;2023-02-13T08:59:12;8.40;45.10
20574;DHT22;10445;50.216;7.912;2023-02-13T09:02:00;8.90;46.60
20574;DHT22;10445;50.216;7.912;2023-02-13T09:04:49;9.60;37.90
20574;DHT22;10445;50.216;7.912;2023-02-13T09:07:37;10.40;27.50
20574;DHT22;10445;50.216;7.912;2023-02-13T09:10:27;11.30;20.30
20574;DHT22;10445;50.216;7.912;2023-02-13T09:13:16;11.90;10.50
20574;DHT22;10445;50.216;7.912;2023-02-13T09:16:06;12.40;6.20
20574;DHT22;10445;50.216;7.912;2023-02-13T09:18:55;12.70;1.00
20574;DHT22;10445;50.216;7.912;2023-02-13T09:21:47;13.10;1.00
20574;DHT22;10445;50.216;7.912;2023-02-13T09:24:36;13.50;1.00
20574;DHT22;10445;50.216;7.912;2023-02-13T09:27:26;13.50;1.00
20574;DHT22;10445;50.216;7.912;2023-02-13T09:30:15;14.00;1.00
20574;DHT22;10445;50.216;7.912;2023-02-13T09:33:11;14.30;1.00
20574;DHT22;10445;50.216;7.912;2023-02-13T09:36:04;14.80;1.00
20574;DHT22;10445;50.216;7.912;2023-02-13T09:38:54;15.10;1.00
20574;DHT22;10445;50.216;7.912;2023-02-13T09:41:43;15.30;1.00
20574;DHT22;10445;50.216;7.912;2023-02-13T09:44:38;15.00;1.00
20574;DHT22;10445;50.216;7.912;2023-02-13T09:47:31;14.90;1.00
20574;DHT22;10445;50.216;7.912;2023-02-13T09:50:23;14.80;1.00
20574;DHT22;10445;50.216;7.912;2023-02-13T09:53:20;15.00;1.00
20574;DHT22;10445;50.216;7.912;2023-02-13T09:56:14;15.00;1.00
20574;DHT22;10445;50.216;7.912;2023-02-13T09:59:16;15.00;1.00
20574;DHT22;10445;50.216;7.912;2023-02-13T10:02:21;15.10;1.00
20574;DHT22;10445;50.216;7.912;2023-02-13T10:05:27;14.90;1.00
20574;DHT22;10445;50.216;7.912;2023-02-13T10:08:30;14.60;1.00
20574;DHT22;10445;50.216;7.912;2023-02-13T10:14:39;14.70;1.00
20574;DHT22;10445;50.216;7.912;2023-02-13T10:17:35;15.10;1.00
20574;DHT22;10445;50.216;7.912;2023-02-13T10:20:27;15.10;1.00
20574;DHT22;10445;50.216;7.912;2023-02-13T10:23:22;15.20;1.00
20574;DHT22;10445;50.216;7.912;2023-02-13T10:26:15;14.60;1.00
20574;DHT22;10445;50.216;7.912;2023-02-13T10:29:08;14.20;1.00
20574;DHT22;10445;50.216;7.912;2023-02-13T10:32:18;14.10;1.00
20574;DHT22;10445;50.216;7.912;2023-02-13T10:35:19;13.90;1.00
20574;DHT22;10445;50.216;7.912;2023-02-13T10:38:13;13.90;1.00
20574;DHT22;10445;50.216;7.912;2023-02-13T10:41:19;13.70;1.00
20574;DHT22;10445;50.216;7.912;2023-02-13T10:44:28;12.90;1.00
20574;DHT22;10445;50.216;7.912;2023-02-13T10:47:30;12.50;1.00
20574;DHT22;10445;50.216;7.912;2023-02-13T10:50:27;12.10;1.00
20574;DHT22;10445;50.216;7.912;2023-02-13T10:53:22;11.90;1.00
20574;DHT22;10445;50.216;7.912;2023-02-13T10:56:32;11.90;1.00
20574;DHT22;10445;50.216;7.912;2023-02-13T10:59:44;12.40;1.00
20574;DHT22;10445;50.216;7.912;2023-02-13T11:02:36;12.40;1.00
20574;DHT22;10445;50.216;7.912;2023-02-13T11:05:34;12.60;1.00
20574;DHT22;10445;50.216;7.912;2023-02-13T11:08:26;12.40;1.00
20574;DHT22;10445;50.216;7.912;2023-02-13T11:11:29;12.00;1.00
20574;DHT22;10445;50.216;7.912;2023-02-13T11:14:20;11.70;1.00
20574;DHT22;10445;50.216;7.912;2023-02-13T11:17:16;11.40;1.00
20574;DHT22;10445;50.216;7.912;2023-02-13T11:20:27;10.90;1.00
20574;DHT22;10445;50.216;7.912;2023-02-13T11:23:31;10.50;4.40
20574;DHT22;10445;50.216;7.912;2023-02-13T11:26:22;10.20;9.70
20574;DHT22;10445;50.216;7.912;2023-02-13T11:29:17;9.90;10.60
20574;DHT22;10445;50.216;7.912;2023-02-13T11:32:20;9.90;16.20
20574;DHT22;10445;50.216;7.912;2023-02-13T11:35:26;10.00;15.80
20574;DHT22;10445;50.216;7.912;2023-02-13T11:38:23;10.10;17.90
20574;DHT22;10445;50.216;7.912;2023-02-13T11:41:14;10.20;17.60
20574;DHT22;10445;50.216;7.912;2023-02-13T11:44:16;10.50;13.80
20574;DHT22;10445;50.216;7.912;2023-02-13T11:47:08;10.60;13.60
20574;DHT22;10445;50.216;7.912;2023-02-13T11:49:57;10.40;12.30
20574;DHT22;10445;50.216;7.912;2023-02-13T11:52:53;10.30;14.90
20574;DHT22;10445;50.216;7.912;2023-02-13T11:55:45;10.70;10.90
20574;DHT22;10445;50.216;7.912;2023-02-13T11:59:00;11.60;8.50
20574;DHT22;10445;50.216;7.912;2023-02-13T12:02:14;13.20;1.00
20574;DHT22;10445;50.216;7.912;2023-02-13T12:05:22;13.40;1.00
20574;DHT22;10445;50.216;7.912;2023-02-13T12:08:12;13.20;1.00
20574;DHT22;10445;50.216;7.912;2023-02-13T12:14:30;13.00;1.00
20574;DHT22;10445;50.216;7.912;2023-02-13T12:17:22;13.30;1.00
20574;DHT22;10445;50.216;7.912;2023-02-13T12:20:18;13.40;1.00
20574;DHT22;10445;50.216;7.912;2023-02-13T12:23:16;14.00;1.00
20574;DHT22;10445;50.216;7.912;2023-02-13T12:26:21;14.30;1.00
20574;DHT22;10445;50.216;7.912;2023-02-13T12:29:44;14.60;1.00
20574;DHT22;10445;50.216;7.912;2023-02-13T12:32:42;14.60;1.00
20574;DHT22;10445;50.216;7.912;2023-02-13T12:35:44;14.60;1.00
20574;DHT22;10445;50.216;7.912;2023-02-13T12:38:48;14.30;1.00
20574;DHT22;10445;50.216;7.912;2023-02-13T12:44:52;13.90;1.00
20574;DHT22;10445;50.216;7.912;2023-02-13T12:47:54;14.30;1.00
20574;DHT22;10445;50.216;7.912;2023-02-13T12:50:58;14.60;1.00
20574;DHT22;10445;50.216;7.912;2023-02-13T12:53:59;15.00;1.00
20574;DHT22;10445;50.216;7.912;2023-02-13T12:57:08;15.20;1.00
20574;DHT22;10445;50.216;7.912;2023-02-13T13:00:11;15.30;1.00
20574;DHT22;10445;50.216;7.912;2023-02-13T13:03:17;15.60;1.00
20574;DHT22;10445;50.216;7.912;2023-02-13T13:06:28;15.50;1.00
20574;DHT22;10445;50.216;7.912;2023-02-13T13:09:31;15.70;1.00
20574;DHT22;10445;50.216;7.912;2023-02-13T13:12:37;15.80;1.00
20574;DHT22;10445;50.216;7.912;2023-02-13T13:15:33;15.60;1.00
20574;DHT22;10445;50.216;7.912;2023-02-13T13:18:34;15.70;1.00
20574;DHT22;10445;50.216;7.912;2023-02-13T13:21:33;16.00;1.00
20574;DHT22;10445;50.216;7.912;2023-02-13T13:24:37;16.60;1.00
20574;DHT22;10445;50.216;7.912;2023-02-13T13:27:31;17.10;1.00
20574;DHT22;10445;50.216;7.912;2023-02-13T13:30:23;17.60;1.00
20574;DHT22;10445;50.216;7.912;2023-02-13T13:33:17;18.70;1.00
20574;DHT22;10445;50.216;7.912;2023-02-13T13:36:10;18.60;1.00
20574;DHT22;10445;50.216;7.912;2023-02-13T13:39:05;17.90;1.00
20574;DHT22;10445;50.216;7.912;2023-02-13T13:42:03;17.70;1.00
20574;DHT22;10445;50.216;7.912;2023-02-13T13:45:08;17.40;1.00
20574;DHT22;10445;50.216;7.912;2023-02-13T13:48:18;17.90;1.00
20574;DHT22;10445;50.216;7.912;2023-02-13T13:51:09;18.00;1.00
20574;DHT22;10445;50.216;7.912;2023-02-13T13:54:33;18.10;1.00
20574;DHT22;10445;50.216;7.912;2023-02-13T13:57:23;17.30;1.00
20574;DHT22;10445;50.216;7.912;2023-02-13T14:00:24;16.90;1.00
20574;DHT22;10445;50.216;7.912;2023-02-13T14:03:23;17.80;1.00
20574;DHT22;10445;50.216;7.912;2023-02-13T14:06:20;17.80;1.00
20574;DHT22;10445;50.216;7.912;2023-02-13T14:09:36;16.90;1.00
20574;DHT22;10445;50.216;7.912;2023-02-13T14:12:37;14.60;1.00
20574;DHT22;10445;50.216;7.912;2023-02-13T14:15:50;13.10;1.00
20574;DHT22;10445;50.216;7.912;2023-02-13T14:18:45;12.10;1.00
20574;DHT22;10445;50.216;7.912;2023-02-13T14:21:37;11.70;1.00
20574;DHT22;10445;50.216;7.912;2023-02-13T14:24:47;11.40;1.00
20574;DHT22;10445;50.216;7.912;2023-02-13T14:35:45;10.90;1.00
20574;DHT22;10445;50.216;7.912;2023-02-13T14:39:19;10.80;1.00
20574;DHT22;10445;50.216;7.912;2023-02-13T14:42:21;10.70;1.00
20574;DHT22;10445;50.216;7.912;2023-02-13T14:45:14;10.60;1.00
20574;DHT22;10445;50.216;7.912;2023-02-13T14:48:06;10.50;1.00
20574;DHT22;10445;50.216;7.912;2023-02-13T14:51:00;10.40;1.00
20574;DHT22;10445;50.216;7.912;2023-02-13T14:53:51;10.40;1.00
20574;DHT22;10445;50.216;7.912;2023-02-13T14:56:44;10.40;1.00
20574;DHT22;10445;50.216;7.912;2023-02-13T14:59:35;10.40;1.00
20574;DHT22;10445;50.216;7.912;2023-02-13T15:02:28;10.20;1.00
20574;DHT22;10445;50.216;7.912;2023-02-13T15:05:19;10.20;1.00
20574;DHT22;10445;50.216;7.912;2023-02-13T15:08:13;10.10;1.00
20574;DHT22;10445;50.216;7.912;2023-02-13T15:11:03;10.10;1.00
20574;DHT22;10445;50.216;7.912;2023-02-13T15:14:20;10.10;1.00
20574;DHT22;10445;50.216;7.912;2023-02-13T15:17:14;10.00;1.00
20574;DHT22;10445;50.216;7.912;2023-02-13T15:20:07;10.00;1.00
20574;DHT22;10445;50.216;7.912;2023-02-13T15:23:04;9.80;1.00
20574;DHT22;10445;50.216;7.912;2023-02-13T15:26:00;9.80;1.00
20574;DHT22;10445;50.216;7.912;2023-02-13T15:28:58;9.70;1.00
20574;DHT22;10445;50.216;7.912;2023-02-13T15:31:47;9.70;1.00
20574;DHT22;10445;50.216;7.912;2023-02-13T15:34:35;9.70;1.00
20574;DHT22;10445;50.216;7.912;2023-02-13T15:37:27;9.60;1.00
20574;DHT22;10445;50.216;7.912;2023-02-13T15:40:22;9.60;1.00
20574;DHT22;10445;50.216;7.912;2023-02-13T15:43:20;9.50;1.00
20574;DHT22;10445;50.216;7.912;2023-02-13T15:46:19;9.40;1.00
20574;DHT22;10445;50.216;7.912;2023-02-13T15:49:14;9.30;1.00
20574;DHT22;10445;50.216;7.912;2023-02-13T15:52:05;9.20;1.00
20574;DHT22;10445;50.216;7.912;2023-02-13T15:54:55;9.10;1.00
20574;DHT22;10445;50.216;7.912;2023-02-13T15:57:44;9.00;1.00
20574;DHT22;10445;50.216;7.912;2023-02-13T16:00:36;8.90;1.00
20574;DHT22;10445;50.216;7.912;2023-02-13T16:03:26;8.80;1.00
20574;DHT22;10445;50.216;7.912;2023-02-13T16:06:18;8.70;1.00
20574;DHT22;10445;50.216;7.912;2023-02-13T16:09:20;8.60;1.00
20574;DHT22;10445;50.216;7.912;2023-02-13T16:12:18;8.60;1.00
20574;DHT22;10445;50.216;7.912;2023-02-13T16:15:14;8.60;1.00
20574;DHT22;10445;50.216;7.912;2023-02-13T16:18:11;8.60;1.00
20574;DHT22;10445;50.216;7.912;2023-02-13T16:21:06;8.40;1.00
20574;DHT22;10445;50.216;7.912;2023-02-13T16:23:57;8.20;2.00
20574;DHT22;10445;50.216;7.912;2023-02-13T16:26:48;8.10;4.30
20574;DHT22;10445;50.216;7.912;2023-02-13T16:29:37;7.90;6.20
20574;DHT22;10445;50.216;7.912;2023-02-13T16:32:27;7.70;7.10
20574;DHT22;10445;50.216;7.912;2023-02-13T16:35:26;7.70;8.10
20574;DHT22;10445;50.216;7.912;2023-02-13T16:38:31;7.60;9.80
20574;DHT22;10445;50.216;7.912;2023-02-13T16:41:30;7.40;11.60
20574;DHT22;10445;50.216;7.912;2023-02-13T16:44:28;7.20;14.30
20574;DHT22;10445;50.216;7.912;2023-02-13T16:47:21;7.00;17.80
20574;DHT22;10445;50.216;7.912;2023-02-13T16:50:13;6.80;21.20
20574;DHT22;10445;50.216;7.912;2023-02-13T16:53:04;6.70;24.10
20574;DHT22;10445;50.216;7.912;2023-02-13T16:55:56;6.50;27.80
20574;DHT22;10445;50.216;7.912;2023-02-13T16:58:45;6.50;29.60
20574;DHT22;10445;50.216;7.912;2023-02-13T17:01:34;6.40;31.90
20574;DHT22;10445;50.216;7.912;2023-02-13T17:04:24;6.30;34.20
20574;DHT22;10445;50.216;7.912;2023-02-13T17:07:15;6.10;36.10
20574;DHT22;10445;50.216;7.912;2023-02-13T17:10:09;6.10;37.90
20574;DHT22;10445;50.216;7.912;2023-02-13T17:13:11;6.10;38.10
20574;DHT22;10445;50.216;7.912;2023-02-13T17:16:00;6.00;38.50
20574;DHT22;10445;50.216;7.912;2023-02-13T17:18:48;5.90;40.40
20574;DHT22;10445;50.216;7.912;2023-02-13T17:21:37;5.90;41.10
20574;DHT22;10445;50.216;7.912;2023-02-13T17:24:26;5.90;40.70
20574;DHT22;10445;50.216;7.912;2023-02-13T17:27:16;6.00;40.30
20574;DHT22;10445;50.216;7.912;2023-02-13T17:30:05;6.10;39.00
20574;DHT22;10445;50.216;7.912;2023-02-13T17:32:59;6.20;37.70
20574;DHT22;10445;50.216;7.912;2023-02-13T17:35:48;6.10;38.40
20574;DHT22;10445;50.216;7.912;2023-02-13T17:38:37;5.90;38.70
20574;DHT22;10445;50.216;7.912;2023-02-13T17:41:25;5.80;39.90
20574;DHT22;10445;50.216;7.912;2023-02-13T17:44:15;5.90;40.10
20574;DHT22;10445;50.216;7.912;2023-02-13T17:47:04;5.90;39.20
20574;DHT22;10445;50.216;7.912;2023-02-13T17:49:52;5.80;39.30
20574;DHT22;10445;50.216;7.912;2023-02-13T17:52:55;5.80;39.20
20574;DHT22;10445;50.216;7.912;2023-02-13T17:55:44;5.80;38.60
20574;DHT22;10445;50.216;7.912;2023-02-13T17:58:33;5.80;36.40
20574;DHT22;10445;50.216;7.912;2023-02-13T18:01:23;5.80;34.20
20574;DHT22;10445;50.216;7.912;2023-02-13T18:04:12;5.80;34.10
20574;DHT22;10445;50.216;7.912;2023-02-13T18:07:00;5.80;33.60
20574;DHT22;10445;50.216;7.912;2023-02-13T18:09:49;5.70;34.20
20574;DHT22;10445;50.216;7.912;2023-02-13T18:12:38;5.50;34.60
20574;DHT22;10445;50.216;7.912;2023-02-13T18:15:26;5.40;34.90
20574;DHT22;10445;50.216;7.912;2023-02-13T18:18:18;5.30;36.80
20574;DHT22;10445;50.216;7.912;2023-02-13T18:21:06;5.20;36.70
20574;DHT22;10445;50.216;7.912;2023-02-13T18:23:57;5.10;38.40
20574;DHT22;10445;50.216;7.912;2023-02-13T18:26:45;5.00;38.90
20574;DHT22;10445;50.216;7.912;2023-02-13T18:29:34;5.00;39.20
20574;DHT22;10445;50.216;7.912;2023-02-13T18:32:23;5.00;37.80
20574;DHT22;10445;50.216;7.912;2023-02-13T18:35:13;5.00;37.80
20574;DHT22;10445;50.216;7.912;2023-02-13T18:38:03;5.00;37.90
20574;DHT22;10445;50.216;7.912;2023-02-13T18:40:52;5.10;38.40
20574;DHT22;10445;50.216;7.912;2023-02-13T18:43:40;5.00;39.30
20574;DHT22;10445;50.216;7.912;2023-02-13T18:46:29;5.00;39.60
20574;DHT22;10445;50.216;7.912;2023-02-13T18:49:18;4.90;40.40
20574;DHT22;10445;50.216;7.912;2023-02-13T18:52:08;4.80;41.60
20574;DHT22;10445;50.216;7.912;2023-02-13T18:54:56;4.80;43.50
20574;DHT22;10445;50.216;7.912;2023-02-13T18:57:45;4.70;43.30
20574;DHT22;10445;50.216;7.912;2023-02-13T19:00:34;4.60;43.90
20574;DHT22;10445;50.216;7.912;2023-02-13T19:03:22;4.60;45.20
20574;DHT22;10445;50.216;7.912;2023-02-13T19:06:13;4.50;46.70